Weather in selectable METAR weather stations

1) Select the Continent / Group:

[Europe]  [Asia]  [Africa]  [North America]  [South America]  
[Central America and Caribbean]  [Oceania]  [Antarctica]  
2) Select the Weather station (City):


METAR = OAKB 131450Z 03012G22KT CAVOK 20/M05 Q1013 RMK A2994 BLU BLU

STATIONOAKB
NAMEKabul Intl, KA, AH
OBSERVED13.05.2021 19:20 (13.05.2021 14:50 UTC), 55 min ago
TEMPERATURE20.0°C ( 68°F)
WINDCHILL19.3 °C (67 °F)
WINDNNE (30 degrees) at 14 MPH (12 knots; 6.2 m/s) gusting to 25 MPH (22 knots; 11.3 m/s)
HUMIDITY18%
PRESSURE1012.9 hPa
Click here to search the weather station or to give the station identifier
(four-character ICAO Location Indicator) for weather data.